createdAt,value
2017-03-19T00:00:30.463Z,0
2017-03-19T00:01:42.686Z,0
2017-03-19T00:02:55.231Z,0
2017-03-19T00:04:07.460Z,0
2017-03-19T00:05:19.997Z,0
2017-03-19T00:06:32.225Z,0
2017-03-19T00:07:44.769Z,0
2017-03-19T00:08:57.292Z,0
2017-03-19T00:10:09.831Z,0
2017-03-19T00:11:22.385Z,0
2017-03-19T00:12:34.578Z,0
2017-03-19T00:13:47.105Z,0
2017-03-19T00:14:59.672Z,0
2017-03-19T00:16:11.892Z,0
2017-03-19T00:17:24.126Z,0
2017-03-19T00:18:36.333Z,0
2017-03-19T00:19:48.856Z,0
2017-03-19T00:21:01.396Z,0
2017-03-19T00:22:13.922Z,0
2017-03-19T00:23:26.450Z,0
2017-03-19T00:24:38.961Z,0
2017-03-19T00:25:51.157Z,0
2017-03-19T00:27:03.703Z,0
2017-03-19T00:28:16.249Z,0
2017-03-19T00:29:28.487Z,0
2017-03-19T00:30:40.391Z,0
2017-03-19T00:31:52.916Z,0
2017-03-19T00:33:05.139Z,0
2017-03-19T00:34:17.352Z,0
2017-03-19T00:35:29.578Z,0
2017-03-19T00:36:42.122Z,0
2017-03-19T00:37:54.640Z,0
2017-03-19T00:39:06.869Z,0
2017-03-19T00:40:19.110Z,0
2017-03-19T00:41:31.049Z,0
2017-03-19T00:42:43.584Z,0
2017-03-19T00:43:56.099Z,0
2017-03-19T00:45:08.362Z,0
2017-03-19T00:46:20.578Z,0
2017-03-19T00:47:32.827Z,0
2017-03-19T00:48:45.357Z,0
2017-03-19T00:49:57.882Z,0
2017-03-19T00:51:10.400Z,0
2017-03-19T00:52:22.967Z,0
2017-03-19T00:53:35.514Z,0
2017-03-19T00:54:47.436Z,0
2017-03-19T00:55:59.951Z,0
2017-03-19T00:57:12.493Z,0
2017-03-19T00:58:24.723Z,0
2017-03-19T00:59:36.963Z,0
2017-03-19T01:00:49.492Z,0
2017-03-19T01:02:02.013Z,0
2017-03-19T01:03:14.559Z,0
2017-03-19T01:04:26.479Z,0
2017-03-19T01:05:39.001Z,0
2017-03-19T01:06:51.221Z,0
2017-03-19T01:08:03.441Z,0
2017-03-19T01:09:15.965Z,0
2017-03-19T01:10:28.159Z,0
2017-03-19T01:11:40.372Z,0
2017-03-19T01:12:52.599Z,0
2017-03-19T01:14:05.149Z,0
2017-03-19T01:15:17.669Z,0
2017-03-19T01:16:30.193Z,0
2017-03-19T01:17:42.131Z,0
2017-03-19T01:18:54.669Z,0
2017-03-19T01:20:07.215Z,0
2017-03-19T01:21:19.148Z,0
2017-03-19T01:22:31.369Z,0
2017-03-19T01:23:43.904Z,0
2017-03-19T01:24:56.427Z,0
2017-03-19T01:26:08.952Z,0
2017-03-19T01:27:21.449Z,0
2017-03-19T01:28:33.950Z,0
2017-03-19T01:29:46.486Z,0
2017-03-19T01:30:58.696Z,0
2017-03-19T01:32:11.228Z,0
2017-03-19T01:33:23.458Z,0
2017-03-19T01:34:36.020Z,0
2017-03-19T01:35:48.523Z,0
2017-03-19T01:37:01.083Z,0
2017-03-19T01:38:13.880Z,0
2017-03-19T01:39:26.129Z,0
2017-03-19T01:40:38.634Z,0
2017-03-19T01:41:51.167Z,0
2017-03-19T01:43:03.726Z,0
2017-03-19T01:44:16.262Z,0
2017-03-19T01:45:28.807Z,0
2017-03-19T01:46:41.349Z,0
2017-03-19T01:47:53.558Z,0
2017-03-19T01:49:05.825Z,0
2017-03-19T01:50:18.052Z,0
2017-03-19T01:51:30.594Z,0
2017-03-19T01:52:42.504Z,0
2017-03-19T01:53:54.434Z,0
2017-03-19T01:55:06.984Z,0
2017-03-19T01:56:19.528Z,0
2017-03-19T01:57:31.702Z,0
2017-03-19T01:58:44.217Z,0
2017-03-19T01:59:56.763Z,0
2017-03-19T02:01:08.680Z,0
2017-03-19T02:02:21.210Z,0
2017-03-19T02:03:33.743Z,0
2017-03-19T02:04:46.276Z,0
2017-03-19T02:05:58.220Z,0
2017-03-19T02:07:10.765Z,0
2017-03-19T02:08:23.306Z,0
2017-03-19T02:09:35.834Z,0
2017-03-19T02:10:48.318Z,0
2017-03-19T02:12:00.544Z,0
2017-03-19T02:13:13.091Z,0
2017-03-19T02:14:25.635Z,0
2017-03-19T02:15:37.884Z,0
2017-03-19T02:16:50.423Z,0
2017-03-19T02:18:02.929Z,0
2017-03-19T02:19:15.454Z,0
2017-03-19T02:20:28.028Z,0
2017-03-19T02:21:40.514Z,0
2017-03-19T02:22:53.054Z,0
2017-03-19T02:24:05.581Z,0
2017-03-19T02:25:18.095Z,0
2017-03-19T02:26:30.618Z,0
2017-03-19T02:27:42.519Z,0
2017-03-19T02:28:55.040Z,0
2017-03-19T02:30:07.586Z,0
2017-03-19T02:31:20.102Z,0
2017-03-19T02:32:32.052Z,0
2017-03-19T02:33:44.327Z,0
2017-03-19T02:34:56.827Z,0
2017-03-19T02:36:09.382Z,0
2017-03-19T02:37:21.887Z,0
2017-03-19T02:38:34.432Z,0
2017-03-19T02:39:46.956Z,0
2017-03-19T02:40:58.916Z,0
2017-03-19T02:42:11.438Z,0
2017-03-19T02:43:24.209Z,0
2017-03-19T02:44:36.743Z,0
2017-03-19T02:45:49.262Z,0
2017-03-19T02:47:01.781Z,0
2017-03-19T02:48:14.281Z,0
2017-03-19T02:49:26.825Z,0
2017-03-19T02:50:39.061Z,0
2017-03-19T02:51:51.569Z,0
2017-03-19T02:53:04.111Z,0
2017-03-19T02:54:16.372Z,0
2017-03-19T02:55:28.920Z,0
2017-03-19T02:56:41.138Z,0
2017-03-19T02:57:53.649Z,0
2017-03-19T02:59:06.216Z,0
2017-03-19T03:00:18.468Z,0
2017-03-19T03:01:31.007Z,0
2017-03-19T03:02:43.232Z,0
2017-03-19T03:03:55.176Z,0
2017-03-19T03:05:07.972Z,0
2017-03-19T03:06:20.238Z,0
2017-03-19T03:07:32.788Z,0
2017-03-19T03:08:45.011Z,0
2017-03-19T03:09:57.558Z,0
2017-03-19T03:11:10.076Z,0
2017-03-19T03:12:22.573Z,0
2017-03-19T03:13:35.090Z,0
2017-03-19T03:14:47.627Z,0
2017-03-19T03:16:00.134Z,0
2017-03-19T03:17:12.682Z,0
2017-03-19T03:18:25.243Z,0
2017-03-19T03:19:37.785Z,0
2017-03-19T03:20:50.009Z,0
2017-03-19T03:22:02.514Z,0
2017-03-19T03:23:15.010Z,0
2017-03-19T03:24:27.580Z,0
2017-03-19T03:25:40.098Z,0
2017-03-19T03:26:52.320Z,0
2017-03-19T03:28:04.841Z,0
2017-03-19T03:29:17.338Z,0
2017-03-19T03:30:29.576Z,0
2017-03-19T03:31:41.832Z,0
2017-03-19T03:32:53.448Z,0
2017-03-19T03:34:05.986Z,0
2017-03-19T03:35:18.233Z,0
2017-03-19T03:36:30.466Z,0
2017-03-19T03:37:42.986Z,0
2017-03-19T03:38:54.895Z,0
2017-03-19T03:40:07.425Z,0
2017-03-19T03:41:19.974Z,0
2017-03-19T03:42:32.221Z,0
2017-03-19T03:43:44.441Z,0
2017-03-19T03:44:56.706Z,0
2017-03-19T03:46:09.232Z,0
2017-03-19T03:47:21.779Z,0
2017-03-19T03:48:34.570Z,0
2017-03-19T03:49:47.069Z,0
2017-03-19T03:50:59.281Z,0
2017-03-19T03:52:11.787Z,0
2017-03-19T03:53:24.279Z,0
2017-03-19T03:54:36.792Z,0
2017-03-19T03:55:49.312Z,0
2017-03-19T03:57:01.848Z,0
2017-03-19T03:58:14.387Z,0
2017-03-19T03:59:26.910Z,0
2017-03-19T04:00:39.451Z,0
2017-03-19T04:01:51.974Z,0
2017-03-19T04:03:04.517Z,0
2017-03-19T04:04:17.047Z,0
2017-03-19T04:05:29.292Z,0
2017-03-19T04:06:41.811Z,0
2017-03-19T04:07:54.056Z,0
2017-03-19T04:09:06.606Z,0
2017-03-19T04:10:19.091Z,0
2017-03-19T04:11:31.613Z,0
2017-03-19T04:12:43.838Z,0
2017-03-19T04:13:56.362Z,0
2017-03-19T04:15:08.881Z,0
2017-03-19T04:16:21.454Z,0
2017-03-19T04:17:33.975Z,0
2017-03-19T04:18:46.538Z,0
2017-03-19T04:19:58.785Z,0
2017-03-19T04:21:11.012Z,0
2017-03-19T04:22:23.558Z,0
2017-03-19T04:23:35.793Z,0
2017-03-19T04:24:48.318Z,0
2017-03-19T04:26:00.860Z,0
2017-03-19T04:27:13.416Z,0
2017-03-19T04:28:25.667Z,0
2017-03-19T04:29:38.201Z,0
2017-03-19T04:30:50.768Z,0
2017-03-19T04:32:02.993Z,0
2017-03-19T04:33:15.546Z,0
2017-03-19T04:34:28.093Z,0
2017-03-19T04:35:40.656Z,0
2017-03-19T04:36:52.893Z,0
2017-03-19T04:38:04.819Z,0
2017-03-19T04:39:17.354Z,0
2017-03-19T04:40:29.897Z,0
2017-03-19T04:41:42.118Z,0
2017-03-19T04:42:54.604Z,0
2017-03-19T04:44:07.132Z,0
2017-03-19T04:45:19.652Z,0
2017-03-19T04:46:32.173Z,0
2017-03-19T04:47:44.373Z,0
2017-03-19T04:48:56.647Z,0
2017-03-19T04:50:09.186Z,0
2017-03-19T04:51:21.150Z,0
2017-03-19T04:52:33.407Z,0
2017-03-19T04:53:45.952Z,0
2017-03-19T04:54:57.899Z,0
2017-03-19T04:56:10.140Z,0
2017-03-19T04:57:22.653Z,0
2017-03-19T04:58:34.585Z,5
2017-03-19T04:59:46.784Z,5
2017-03-19T05:00:59.321Z,5
2017-03-19T05:02:11.847Z,10
2017-03-19T05:03:24.097Z,10
2017-03-19T05:04:36.340Z,10
2017-03-19T05:05:48.862Z,10
2017-03-19T05:07:01.400Z,15
2017-03-19T05:08:13.646Z,15
2017-03-19T05:09:25.867Z,20
2017-03-19T05:10:38.400Z,20
2017-03-19T05:11:50.659Z,20
2017-03-19T05:13:03.162Z,20
2017-03-19T05:14:15.389Z,25
2017-03-19T05:15:27.900Z,25
2017-03-19T05:16:40.123Z,30
2017-03-19T05:17:52.670Z,30
2017-03-19T05:19:05.206Z,30
2017-03-19T05:20:17.739Z,35
2017-03-19T05:21:30.279Z,35
2017-03-19T05:22:42.849Z,40
2017-03-19T05:23:55.392Z,45
2017-03-19T05:25:07.323Z,50
2017-03-19T05:26:20.118Z,55
2017-03-19T05:27:32.352Z,60
2017-03-19T05:28:44.581Z,60
2017-03-19T05:29:57.105Z,60
2017-03-19T05:31:09.322Z,65
2017-03-19T05:32:21.843Z,65
2017-03-19T05:33:34.394Z,70
2017-03-19T05:34:46.630Z,75
2017-03-19T05:35:58.862Z,80
2017-03-19T05:37:11.631Z,85
2017-03-19T05:38:23.870Z,90
2017-03-19T05:39:36.114Z,95
2017-03-19T05:40:48.616Z,100
2017-03-19T05:42:01.135Z,105
2017-03-19T05:43:13.667Z,105
2017-03-19T05:44:26.202Z,115
2017-03-19T05:45:38.715Z,120
2017-03-19T05:46:51.220Z,120
2017-03-19T05:48:03.694Z,120
2017-03-19T05:49:16.237Z,125
2017-03-19T05:50:28.761Z,125
2017-03-19T05:51:40.978Z,135
2017-03-19T05:52:53.207Z,140
2017-03-19T05:54:05.465Z,145
2017-03-19T05:55:17.986Z,150
2017-03-19T05:56:30.236Z,160
2017-03-19T05:57:42.511Z,170
2017-03-19T05:58:55.081Z,185
2017-03-19T06:00:07.628Z,200
2017-03-19T06:01:20.140Z,210
2017-03-19T06:02:32.372Z,220
2017-03-19T06:03:44.887Z,230
2017-03-19T06:04:56.813Z,230
2017-03-19T06:06:09.034Z,230
2017-03-19T06:07:21.246Z,230
2017-03-19T06:08:33.773Z,230
2017-03-19T06:09:46.319Z,240
2017-03-19T06:10:58.839Z,250
2017-03-19T06:12:11.340Z,255
2017-03-19T06:13:23.857Z,250
2017-03-19T06:14:36.103Z,245
2017-03-19T06:15:48.645Z,240
2017-03-19T06:17:01.159Z,235
2017-03-19T06:18:13.681Z,235
2017-03-19T06:19:26.214Z,235
2017-03-19T06:20:38.750Z,235
2017-03-19T06:21:51.344Z,235
2017-03-19T06:23:03.896Z,235
2017-03-19T06:24:15.839Z,235
2017-03-19T06:25:28.379Z,235
2017-03-19T06:26:40.914Z,235
2017-03-19T06:27:53.476Z,245
2017-03-19T06:29:06.004Z,250
2017-03-19T06:30:18.550Z,255
2017-03-19T06:31:30.767Z,260
2017-03-19T06:32:43.323Z,265
2017-03-19T06:33:55.560Z,270
2017-03-19T06:35:08.076Z,285
2017-03-19T06:36:20.604Z,285
2017-03-19T06:37:32.822Z,290
2017-03-19T06:38:45.346Z,290
2017-03-19T06:39:57.859Z,285
2017-03-19T06:41:10.406Z,285
2017-03-19T06:42:22.580Z,285
2017-03-19T06:43:35.098Z,285
2017-03-19T06:44:47.600Z,290
2017-03-19T06:45:59.542Z,295
2017-03-19T06:47:11.769Z,305
2017-03-19T06:48:24.339Z,315
2017-03-19T06:49:36.910Z,325
2017-03-19T06:50:49.456Z,335
2017-03-19T06:52:02.041Z,335
2017-03-19T06:53:14.569Z,335
2017-03-19T06:54:26.467Z,340
2017-03-19T06:55:39.010Z,335
2017-03-19T06:56:51.536Z,345
2017-03-19T06:58:03.761Z,360
2017-03-19T06:59:16.302Z,370
2017-03-19T07:00:28.844Z,365
2017-03-19T07:01:41.371Z,360
2017-03-19T07:02:53.607Z,360
2017-03-19T07:04:06.154Z,350
2017-03-19T07:05:18.654Z,345
2017-03-19T07:06:30.549Z,345
2017-03-19T07:07:43.050Z,345
2017-03-19T07:08:55.268Z,345
2017-03-19T07:10:07.788Z,350
2017-03-19T07:11:20.009Z,365
2017-03-19T07:12:32.229Z,380
2017-03-19T07:13:44.460Z,380
2017-03-19T07:14:57.014Z,375
2017-03-19T07:16:09.521Z,365
2017-03-19T07:17:22.059Z,355
2017-03-19T07:18:34.606Z,350
2017-03-19T07:19:47.157Z,350
2017-03-19T07:20:59.377Z,350
2017-03-19T07:22:11.313Z,350
2017-03-19T07:23:23.543Z,350
2017-03-19T07:24:36.038Z,340
2017-03-19T07:25:48.588Z,330
2017-03-19T07:27:00.826Z,320
2017-03-19T07:28:13.354Z,315
2017-03-19T07:29:25.891Z,320
2017-03-19T07:30:38.746Z,335
2017-03-19T07:31:50.971Z,350
2017-03-19T07:33:03.502Z,365
2017-03-19T07:34:16.030Z,385
2017-03-19T07:35:28.551Z,405
2017-03-19T07:36:40.751Z,420
2017-03-19T07:37:53.296Z,435
2017-03-19T07:39:05.813Z,445
2017-03-19T07:40:17.755Z,450
2017-03-19T07:41:30.010Z,460
2017-03-19T07:42:42.555Z,470
2017-03-19T07:43:55.115Z,480
2017-03-19T07:45:07.347Z,480
2017-03-19T07:46:19.896Z,475
2017-03-19T07:47:32.160Z,475
2017-03-19T07:48:44.428Z,490
2017-03-19T07:49:56.947Z,505
2017-03-19T07:51:09.194Z,525
2017-03-19T07:52:21.419Z,545
2017-03-19T07:53:33.940Z,560
2017-03-19T07:54:46.464Z,590
2017-03-19T07:55:59.012Z,620
2017-03-19T07:57:11.572Z,650
2017-03-19T07:58:24.353Z,665
2017-03-19T07:59:36.572Z,670
2017-03-19T08:00:49.115Z,655
2017-03-19T08:02:01.035Z,650
2017-03-19T08:03:13.275Z,640
2017-03-19T08:04:25.824Z,625
2017-03-19T08:05:38.330Z,615
2017-03-19T08:06:50.869Z,595
2017-03-19T08:08:03.115Z,570
2017-03-19T08:09:15.357Z,550
2017-03-19T08:10:27.586Z,540
2017-03-19T08:11:40.131Z,525
2017-03-19T08:12:52.674Z,520
2017-03-19T08:14:04.595Z,515
2017-03-19T08:15:16.791Z,510
2017-03-19T08:16:29.315Z,500
2017-03-19T08:17:41.566Z,480
2017-03-19T08:18:53.827Z,465
2017-03-19T08:20:06.353Z,465
2017-03-19T08:21:18.871Z,465
2017-03-19T08:22:31.436Z,470
2017-03-19T08:23:43.981Z,475
2017-03-19T08:24:56.519Z,480
2017-03-19T08:26:08.157Z,490
2017-03-19T08:27:20.702Z,500
2017-03-19T08:28:33.241Z,505
2017-03-19T08:29:45.470Z,515
2017-03-19T08:30:57.391Z,530
2017-03-19T08:32:09.609Z,545
2017-03-19T08:33:21.530Z,565
2017-03-19T08:34:33.758Z,575
2017-03-19T08:35:46.297Z,585
2017-03-19T08:36:58.819Z,590
2017-03-19T08:38:10.718Z,605
2017-03-19T08:39:23.278Z,620
2017-03-19T08:40:35.835Z,625
2017-03-19T08:41:48.068Z,605
2017-03-19T08:43:00.322Z,595
2017-03-19T08:44:12.843Z,610
2017-03-19T08:45:25.081Z,620
2017-03-19T08:46:37.634Z,625
2017-03-19T08:47:50.198Z,640
2017-03-19T08:49:02.727Z,660
2017-03-19T08:50:14.943Z,675
2017-03-19T08:51:26.589Z,715
2017-03-19T08:52:39.144Z,740
2017-03-19T08:53:51.688Z,780
2017-03-19T08:55:03.924Z,805
2017-03-19T08:56:15.851Z,825
2017-03-19T08:57:28.073Z,825
2017-03-19T08:58:40.312Z,820
2017-03-19T08:59:52.867Z,830
2017-03-19T09:01:05.102Z,830
2017-03-19T09:02:17.313Z,820
2017-03-19T09:03:29.828Z,805
2017-03-19T09:04:42.369Z,800
2017-03-19T09:05:54.912Z,795
2017-03-19T09:07:07.442Z,780
2017-03-19T09:08:19.979Z,755
2017-03-19T09:09:32.228Z,695
2017-03-19T09:10:44.784Z,650
2017-03-19T09:11:57.299Z,630
2017-03-19T09:13:09.824Z,625
2017-03-19T09:14:22.371Z,630
2017-03-19T09:15:34.933Z,655
2017-03-19T09:16:46.558Z,655
2017-03-19T09:17:58.781Z,650
2017-03-19T09:19:11.332Z,640
2017-03-19T09:20:23.577Z,640
2017-03-19T09:21:36.144Z,655
2017-03-19T09:22:48.116Z,665
2017-03-19T09:24:00.358Z,665
2017-03-19T09:25:12.604Z,655
2017-03-19T09:26:25.133Z,655
2017-03-19T09:27:37.675Z,635
2017-03-19T09:28:50.213Z,595
2017-03-19T09:30:02.740Z,560
2017-03-19T09:31:14.658Z,545
2017-03-19T09:32:26.900Z,540
2017-03-19T09:33:39.157Z,540
2017-03-19T09:34:51.700Z,545
2017-03-19T09:36:04.245Z,565
2017-03-19T09:37:16.784Z,585
2017-03-19T09:38:29.331Z,610
2017-03-19T09:39:41.561Z,635
2017-03-19T09:40:54.083Z,645
2017-03-19T09:42:06.642Z,645
2017-03-19T09:43:18.918Z,650
2017-03-19T09:44:31.464Z,640
2017-03-19T09:45:44.006Z,640
2017-03-19T09:46:56.548Z,650
2017-03-19T09:48:08.793Z,680
2017-03-19T09:49:20.722Z,700
2017-03-19T09:50:33.010Z,690
2017-03-19T09:51:45.239Z,660
2017-03-19T09:52:57.478Z,630
2017-03-19T09:54:09.723Z,610
2017-03-19T09:55:22.270Z,615
2017-03-19T09:56:34.223Z,625
2017-03-19T09:57:46.469Z,645
2017-03-19T09:58:58.993Z,650
2017-03-19T10:00:10.917Z,640
2017-03-19T10:01:23.161Z,625
2017-03-19T10:02:35.405Z,615
2017-03-19T10:03:47.928Z,620
2017-03-19T10:05:00.450Z,615
2017-03-19T10:06:12.984Z,600
2017-03-19T10:07:24.929Z,610
2017-03-19T10:08:37.459Z,600
2017-03-19T10:09:50.008Z,590
2017-03-19T10:11:02.530Z,590
2017-03-19T10:12:15.100Z,590
2017-03-19T10:13:27.316Z,595
2017-03-19T10:14:39.236Z,605
2017-03-19T10:15:51.779Z,610
2017-03-19T10:17:04.307Z,615
2017-03-19T10:18:16.578Z,620
2017-03-19T10:19:29.091Z,635
2017-03-19T10:20:41.616Z,630
2017-03-19T10:21:53.854Z,630
2017-03-19T10:23:06.401Z,650
2017-03-19T10:24:18.050Z,680
2017-03-19T10:25:30.293Z,720
2017-03-19T10:26:42.866Z,725
2017-03-19T10:27:55.423Z,705
2017-03-19T10:29:07.959Z,690
2017-03-19T10:30:20.511Z,670
2017-03-19T10:31:32.758Z,665
2017-03-19T10:32:45.300Z,645
2017-03-19T10:33:57.522Z,635
2017-03-19T10:35:10.038Z,640
2017-03-19T10:36:22.587Z,640
2017-03-19T10:37:34.515Z,645
2017-03-19T10:38:46.772Z,650
2017-03-19T10:39:59.319Z,645
2017-03-19T10:41:11.547Z,620
2017-03-19T10:42:23.786Z,585
2017-03-19T10:43:36.338Z,555
2017-03-19T10:44:48.880Z,535
2017-03-19T10:46:01.423Z,520
2017-03-19T10:47:13.372Z,505
2017-03-19T10:48:25.903Z,500
2017-03-19T10:49:38.119Z,500
2017-03-19T10:50:50.664Z,510
2017-03-19T10:52:02.888Z,520
2017-03-19T10:53:15.206Z,530
2017-03-19T10:54:27.445Z,535
2017-03-19T10:55:39.727Z,520
2017-03-19T10:56:52.219Z,500
2017-03-19T10:58:04.746Z,480
2017-03-19T10:59:16.990Z,460
2017-03-19T11:00:29.576Z,440
2017-03-19T11:01:41.806Z,430
2017-03-19T11:02:54.349Z,435
2017-03-19T11:04:06.898Z,420
2017-03-19T11:05:19.432Z,420
2017-03-19T11:06:31.678Z,415
2017-03-19T11:07:44.207Z,405
2017-03-19T11:08:56.753Z,400
2017-03-19T11:10:09.301Z,395
2017-03-19T11:11:21.815Z,400
2017-03-19T11:12:34.344Z,425
2017-03-19T11:13:46.905Z,465
2017-03-19T11:14:59.461Z,495
2017-03-19T11:16:12.027Z,500
2017-03-19T11:17:24.553Z,490
2017-03-19T11:18:37.090Z,475
2017-03-19T11:19:49.016Z,465
2017-03-19T11:21:01.567Z,465
2017-03-19T11:22:13.841Z,470
2017-03-19T11:23:26.412Z,475
2017-03-19T11:24:38.351Z,475
2017-03-19T11:25:50.867Z,490
2017-03-19T11:27:03.408Z,475
2017-03-19T11:28:15.615Z,460
2017-03-19T11:29:27.867Z,460
2017-03-19T11:30:40.400Z,480
2017-03-19T11:31:52.945Z,495
2017-03-19T11:33:05.172Z,515
2017-03-19T11:34:17.111Z,535
2017-03-19T11:35:29.638Z,540
2017-03-19T11:36:41.864Z,535
2017-03-19T11:37:54.097Z,530
2017-03-19T11:39:06.630Z,520
2017-03-19T11:40:19.205Z,515
2017-03-19T11:41:31.136Z,515
2017-03-19T11:42:43.692Z,505
2017-03-19T11:43:56.217Z,475
2017-03-19T11:45:08.758Z,495
2017-03-19T11:46:21.301Z,490
2017-03-19T11:47:33.800Z,485
2017-03-19T11:48:46.360Z,500
2017-03-19T11:49:58.589Z,510
2017-03-19T11:51:11.114Z,515
2017-03-19T11:52:23.352Z,485
2017-03-19T11:53:35.877Z,485
2017-03-19T11:54:48.114Z,490
2017-03-19T11:55:59.745Z,460
2017-03-19T11:57:12.219Z,485
2017-03-19T11:58:24.478Z,520
2017-03-19T11:59:37.010Z,510
2017-03-19T12:00:49.252Z,540
2017-03-19T12:02:01.790Z,510
2017-03-19T12:03:14.322Z,490
2017-03-19T12:04:26.560Z,505
2017-03-19T12:05:38.804Z,510
2017-03-19T12:06:51.306Z,455
2017-03-19T12:08:03.851Z,465
2017-03-19T12:09:15.799Z,415
2017-03-19T12:10:28.025Z,430
2017-03-19T12:11:39.940Z,450
2017-03-19T12:12:52.461Z,450
2017-03-19T12:14:04.703Z,450
2017-03-19T12:15:16.658Z,440
2017-03-19T12:16:28.903Z,425
2017-03-19T12:17:41.145Z,440
2017-03-19T12:18:53.945Z,450
2017-03-19T12:20:06.482Z,455
2017-03-19T12:21:18.400Z,455
2017-03-19T12:22:30.933Z,450
2017-03-19T12:23:43.198Z,440
2017-03-19T12:24:55.424Z,420
2017-03-19T12:26:07.371Z,415
2017-03-19T12:27:19.936Z,415
2017-03-19T12:28:32.460Z,400
2017-03-19T12:29:44.697Z,360
2017-03-19T12:30:56.902Z,390
2017-03-19T12:32:09.414Z,390
2017-03-19T12:33:21.967Z,385
2017-03-19T12:34:34.489Z,395
2017-03-19T12:35:47.026Z,400
2017-03-19T12:36:59.582Z,375
2017-03-19T12:38:12.107Z,375
2017-03-19T12:39:23.738Z,375
2017-03-19T12:40:36.242Z,350
2017-03-19T12:41:48.763Z,425
2017-03-19T12:43:01.330Z,410
2017-03-19T12:44:13.555Z,400
2017-03-19T12:45:26.122Z,380
2017-03-19T12:46:38.649Z,310
2017-03-19T12:47:51.218Z,300
2017-03-19T12:49:03.465Z,270
2017-03-19T12:50:15.686Z,275
2017-03-19T12:51:27.897Z,270
2017-03-19T12:52:40.444Z,255
2017-03-19T12:53:52.972Z,245
2017-03-19T12:55:05.236Z,245
2017-03-19T12:56:17.446Z,390
2017-03-19T12:57:29.980Z,485
2017-03-19T12:58:42.506Z,415
2017-03-19T12:59:55.027Z,385
2017-03-19T13:01:07.544Z,325
2017-03-19T13:02:19.769Z,275
2017-03-19T13:03:32.315Z,350
2017-03-19T13:04:44.827Z,400
2017-03-19T13:05:57.052Z,450
2017-03-19T13:07:09.553Z,460
2017-03-19T13:08:21.774Z,555
2017-03-19T13:09:34.319Z,500
2017-03-19T13:10:46.897Z,385
2017-03-19T13:11:59.442Z,360
2017-03-19T13:13:12.003Z,295
2017-03-19T13:14:23.647Z,330
2017-03-19T13:15:35.869Z,265
2017-03-19T13:16:48.118Z,330
2017-03-19T13:18:00.367Z,335
2017-03-19T13:19:12.880Z,330
2017-03-19T13:20:25.433Z,270
2017-03-19T13:21:37.970Z,265
2017-03-19T13:22:50.227Z,250
2017-03-19T13:24:02.450Z,245
2017-03-19T13:25:14.990Z,300
2017-03-19T13:26:27.241Z,265
2017-03-19T13:27:39.783Z,220
2017-03-19T13:28:52.343Z,250
2017-03-19T13:30:04.869Z,330
2017-03-19T13:31:17.100Z,415
2017-03-19T13:32:29.624Z,435
2017-03-19T13:33:42.155Z,415
2017-03-19T13:34:54.686Z,360
2017-03-19T13:36:07.207Z,275
2017-03-19T13:37:19.417Z,200
2017-03-19T13:38:31.074Z,170
2017-03-19T13:39:43.616Z,165
2017-03-19T13:40:55.216Z,190
2017-03-19T13:42:07.712Z,255
2017-03-19T13:43:19.634Z,375
2017-03-19T13:44:32.179Z,480
2017-03-19T13:45:44.396Z,570
2017-03-19T13:46:56.643Z,485
2017-03-19T13:48:08.891Z,490
2017-03-19T13:49:21.161Z,415
2017-03-19T13:50:33.376Z,345
2017-03-19T13:51:45.929Z,285
2017-03-19T13:52:58.147Z,275
2017-03-19T13:54:10.063Z,225
2017-03-19T13:55:22.567Z,210
2017-03-19T13:56:35.118Z,200
2017-03-19T13:57:47.336Z,190
2017-03-19T13:58:59.527Z,185
2017-03-19T14:00:11.748Z,205
2017-03-19T14:01:23.972Z,210
2017-03-19T14:02:36.544Z,250
2017-03-19T14:03:49.089Z,285
2017-03-19T14:05:01.315Z,255
2017-03-19T14:06:13.548Z,275
2017-03-19T14:07:25.802Z,275
2017-03-19T14:08:38.419Z,265
2017-03-19T14:09:50.944Z,230
2017-03-19T14:11:03.465Z,240
2017-03-19T14:12:15.711Z,225
2017-03-19T14:13:28.281Z,260
2017-03-19T14:14:40.778Z,275
2017-03-19T14:15:52.404Z,235
2017-03-19T14:17:04.937Z,195
2017-03-19T14:18:17.754Z,225
2017-03-19T14:19:29.703Z,240
2017-03-19T14:20:41.657Z,220
2017-03-19T14:21:54.233Z,240
2017-03-19T14:23:06.787Z,240
2017-03-19T14:24:18.764Z,250
2017-03-19T14:25:30.987Z,235
2017-03-19T14:26:43.504Z,255
2017-03-19T14:27:56.071Z,265
2017-03-19T14:29:07.978Z,245
2017-03-19T14:30:20.499Z,260
2017-03-19T14:31:33.019Z,255
2017-03-19T14:32:45.545Z,260
2017-03-19T14:33:58.101Z,305
2017-03-19T14:35:10.009Z,300
2017-03-19T14:36:22.225Z,365
2017-03-19T14:37:34.763Z,405
2017-03-19T14:38:46.981Z,380
2017-03-19T14:39:59.779Z,420
2017-03-19T14:41:12.327Z,395
2017-03-19T14:42:24.548Z,375
2017-03-19T14:43:36.778Z,405
2017-03-19T14:44:48.415Z,440
2017-03-19T14:46:00.670Z,455
2017-03-19T14:47:12.944Z,430
2017-03-19T14:48:25.210Z,430
2017-03-19T14:49:37.452Z,370
2017-03-19T14:50:49.999Z,370
2017-03-19T14:52:02.524Z,285
2017-03-19T14:53:15.067Z,260
2017-03-19T14:54:27.317Z,230
2017-03-19T14:55:39.562Z,175
2017-03-19T14:56:51.810Z,155
2017-03-19T14:58:03.756Z,125
2017-03-19T14:59:15.999Z,130
2017-03-19T15:00:28.564Z,155
2017-03-19T15:01:41.067Z,140
2017-03-19T15:02:53.004Z,160
2017-03-19T15:04:04.609Z,180
2017-03-19T15:05:16.848Z,185
2017-03-19T15:06:29.074Z,155
2017-03-19T15:07:40.995Z,140
2017-03-19T15:08:53.518Z,135
2017-03-19T15:10:06.035Z,130
2017-03-19T15:11:18.266Z,130
2017-03-19T15:12:30.153Z,100
2017-03-19T15:13:42.366Z,80
2017-03-19T15:14:54.894Z,70
2017-03-19T15:16:07.443Z,60
2017-03-19T15:17:19.640Z,50
2017-03-19T15:18:32.210Z,50
2017-03-19T15:19:44.156Z,60
2017-03-19T15:20:56.390Z,70
2017-03-19T15:22:08.623Z,90
2017-03-19T15:23:21.159Z,100
2017-03-19T15:24:33.691Z,110
2017-03-19T15:25:45.924Z,140
2017-03-19T15:26:58.470Z,125
2017-03-19T15:28:10.718Z,95
2017-03-19T15:29:23.249Z,95
2017-03-19T15:30:35.766Z,125
2017-03-19T15:31:47.990Z,170
2017-03-19T15:33:00.211Z,135
2017-03-19T15:34:12.496Z,100
2017-03-19T15:35:24.724Z,80
2017-03-19T15:36:36.945Z,75
2017-03-19T15:37:49.472Z,70
2017-03-19T15:39:00.805Z,55
2017-03-19T15:40:13.362Z,45
2017-03-19T15:41:25.903Z,40
2017-03-19T15:42:38.128Z,40
2017-03-19T15:43:50.671Z,50
2017-03-19T15:45:03.499Z,70
2017-03-19T15:46:16.041Z,60
2017-03-19T15:47:28.565Z,60
2017-03-19T15:48:40.823Z,85
2017-03-19T15:49:52.771Z,115
2017-03-19T15:51:05.000Z,125
2017-03-19T15:52:17.523Z,155
2017-03-19T15:53:29.745Z,120
2017-03-19T15:54:42.001Z,100
2017-03-19T15:55:54.530Z,100
2017-03-19T15:57:06.751Z,90
2017-03-19T15:58:19.265Z,95
2017-03-19T15:59:31.519Z,85
2017-03-19T16:00:44.039Z,70
2017-03-19T16:01:56.563Z,80
2017-03-19T16:03:09.085Z,80
2017-03-19T16:04:21.621Z,85
2017-03-19T16:05:34.165Z,80
2017-03-19T16:06:46.714Z,75
2017-03-19T16:07:58.917Z,85
2017-03-19T16:09:11.157Z,65
2017-03-19T16:10:23.386Z,75
2017-03-19T16:11:34.993Z,85
2017-03-19T16:12:46.932Z,95
2017-03-19T16:13:59.179Z,100
2017-03-19T16:15:11.720Z,110
2017-03-19T16:16:24.285Z,115
2017-03-19T16:17:36.502Z,105
2017-03-19T16:18:48.725Z,95
2017-03-19T16:20:01.249Z,90
2017-03-19T16:21:13.186Z,85
2017-03-19T16:22:25.411Z,90
2017-03-19T16:23:37.937Z,80
2017-03-19T16:24:50.477Z,70
2017-03-19T16:26:02.703Z,75
2017-03-19T16:27:14.954Z,65
2017-03-19T16:28:27.198Z,60
2017-03-19T16:29:39.744Z,60
2017-03-19T16:30:51.987Z,55
2017-03-19T16:32:04.529Z,50
2017-03-19T16:33:16.774Z,45
2017-03-19T16:34:29.310Z,40
2017-03-19T16:35:41.825Z,35
2017-03-19T16:36:54.359Z,30
2017-03-19T16:38:06.312Z,30
2017-03-19T16:39:18.534Z,25
2017-03-19T16:40:30.782Z,30
2017-03-19T16:41:42.717Z,30
2017-03-19T16:42:54.948Z,20
2017-03-19T16:44:06.895Z,25
2017-03-19T16:45:19.442Z,35
2017-03-19T16:46:31.379Z,30
2017-03-19T16:47:43.904Z,25
2017-03-19T16:48:56.458Z,20
2017-03-19T16:50:08.672Z,20
2017-03-19T16:51:21.221Z,15
2017-03-19T16:52:33.438Z,10
2017-03-19T16:53:45.960Z,15
2017-03-19T16:54:58.510Z,15
2017-03-19T16:56:10.472Z,15
2017-03-19T16:57:22.998Z,10
2017-03-19T16:58:35.535Z,10
2017-03-19T16:59:48.092Z,5
2017-03-19T17:00:59.706Z,10